Alexandria, United Kingdom
Current Conditions -  °F | °C
As of 12:50 AM on Thursday 18 Dec 2014 (Local Time) from EGPF Reporting Station
Drizzle Drizzle  
Wind Chill: 10°   Ceiling: 1000
Heat Index: 10°   Visibility: 4mi
Dew Point:   Wind: 16mph
Humidity: 94%   Direction: 240°WSW
Pressure: 29.47"   Gusts: NA
Location:  55.99°N, 4.59°W
Report Text: EGPF 180050Z 24014KT 7000 DZ OVC010 10/09 Q0998
Loading
Personal Weather Stations






























Interactive Weather Map New forecast layout! Learn more

10-Day Weather Forecast

Advertisements
Track Severe Weather on mobile